createdAt,value
2022-09-30T00:06:26.615Z,-72
2022-09-30T00:11:26.595Z,-71
2022-09-30T00:16:26.670Z,-71
2022-09-30T00:26:26.616Z,-72
2022-09-30T00:31:26.645Z,-72
2022-09-30T00:41:26.595Z,-72
2022-09-30T00:51:26.632Z,-72
2022-09-30T00:56:26.611Z,-73
2022-09-30T01:06:26.607Z,-74
2022-09-30T01:11:26.633Z,-74
2022-09-30T01:21:26.600Z,-73
2022-09-30T01:26:26.623Z,-73
2022-09-30T01:31:26.739Z,-73
2022-09-30T01:41:26.614Z,-74
2022-09-30T01:46:26.679Z,-74
2022-09-30T01:56:26.723Z,-73
2022-09-30T02:06:26.622Z,-74
2022-09-30T02:11:26.618Z,-74
2022-09-30T02:21:26.632Z,-74
2022-09-30T02:26:26.617Z,-74
2022-09-30T02:31:26.703Z,-74
2022-09-30T02:41:26.646Z,-74
2022-09-30T02:51:26.627Z,-74
2022-09-30T03:01:26.683Z,-74
2022-09-30T03:11:26.613Z,-74
2022-09-30T03:21:26.649Z,-74
2022-09-30T03:31:26.662Z,-74
2022-09-30T03:36:26.627Z,-75
2022-09-30T03:41:26.771Z,-74
2022-09-30T03:51:26.611Z,-74
2022-09-30T03:56:26.617Z,-74
2022-09-30T04:01:26.652Z,-74
2022-09-30T04:06:26.633Z,-74
2022-09-30T04:11:26.656Z,-75
2022-09-30T04:21:26.651Z,-72
2022-09-30T04:26:26.636Z,-74
2022-09-30T04:36:26.653Z,-74
2022-09-30T04:46:26.662Z,-74
2022-09-30T04:56:26.630Z,-74
2022-09-30T05:06:26.698Z,-73
2022-09-30T05:11:26.633Z,-74
2022-09-30T05:21:26.623Z,-74
2022-09-30T05:31:26.759Z,-74
2022-09-30T05:36:26.640Z,-74
2022-09-30T05:46:26.685Z,-74
2022-09-30T05:56:26.676Z,-74
2022-09-30T06:06:26.642Z,-74
2022-09-30T06:16:26.736Z,-74
2022-09-30T06:21:26.647Z,-74
2022-09-30T06:31:26.680Z,-74
2022-09-30T06:36:26.675Z,-74
2022-09-30T06:46:30.964Z,-74
2022-09-30T06:56:26.681Z,-74
2022-09-30T07:06:26.652Z,-77
2022-09-30T07:16:26.726Z,-78
2022-09-30T07:26:26.647Z,-77
2022-09-30T07:31:35.254Z,-77
2022-09-30T07:36:31.768Z,-78
2022-09-30T07:46:26.659Z,-77
2022-09-30T07:56:26.682Z,-78
2022-09-30T08:06:26.653Z,-76
2022-09-30T08:11:26.652Z,-76
2022-09-30T08:16:26.724Z,-78
2022-09-30T08:26:26.652Z,-77
2022-09-30T08:31:26.742Z,-77
2022-09-30T08:36:26.693Z,-77
2022-09-30T08:46:26.751Z,-78
2022-09-30T08:56:26.685Z,-78
2022-09-30T09:06:26.666Z,-78
2022-09-30T09:16:26.747Z,-77
2022-09-30T09:26:26.654Z,-78
2022-09-30T09:31:26.707Z,-77
2022-09-30T09:41:26.691Z,-78
2022-09-30T09:51:26.662Z,-76
2022-09-30T09:56:31.870Z,-76
2022-09-30T10:01:26.837Z,-76
2022-09-30T10:11:26.659Z,-76
2022-09-30T10:21:26.678Z,-77
2022-09-30T10:31:26.776Z,-77
2022-09-30T10:36:26.676Z,-77
2022-09-30T10:46:27.671Z,-76
2022-09-30T10:56:26.658Z,-76
2022-09-30T11:06:27.025Z,-77
2022-09-30T11:11:26.682Z,-78
2022-09-30T11:16:27.130Z,-78
2022-09-30T11:21:26.683Z,-78
2022-09-30T11:26:27.069Z,-78
2022-09-30T11:36:26.949Z,-76
2022-09-30T11:41:26.687Z,-77
2022-09-30T11:51:26.779Z,-77
2022-09-30T12:01:26.681Z,-77
2022-09-30T12:11:26.699Z,-77
2022-09-30T12:21:26.676Z,-76
2022-09-30T12:31:26.730Z,-77
2022-09-30T12:41:26.673Z,-77
2022-09-30T12:51:26.692Z,-77
2022-09-30T12:56:27.196Z,-77
2022-09-30T13:01:26.720Z,-77
2022-09-30T13:11:26.701Z,-76
2022-09-30T13:21:26.685Z,-76
2022-09-30T13:26:26.685Z,-76
2022-09-30T13:36:26.700Z,-76
2022-09-30T13:41:26.690Z,-77
2022-09-30T13:46:26.692Z,-77
2022-09-30T13:56:26.699Z,-75
2022-09-30T14:01:26.817Z,-75
2022-09-30T14:06:26.691Z,-75
2022-09-30T14:16:26.704Z,-76
2022-09-30T14:21:26.694Z,-79
2022-09-30T14:31:26.757Z,-78
2022-09-30T14:36:26.736Z,-78
2022-09-30T14:41:26.697Z,-77
2022-09-30T14:46:26.712Z,-76
2022-09-30T14:56:26.708Z,-77
2022-09-30T15:01:26.746Z,-74
2022-09-30T15:06:26.699Z,-74
2022-09-30T15:16:26.737Z,-73
2022-09-30T15:21:26.696Z,-73
2022-09-30T15:26:26.698Z,-73
2022-09-30T15:36:26.704Z,-72
2022-09-30T15:41:26.699Z,-73
2022-09-30T15:51:26.690Z,-71
2022-09-30T16:01:26.866Z,-74
2022-09-30T16:11:26.700Z,-74
2022-09-30T16:16:26.804Z,-74
2022-09-30T16:21:26.762Z,-74
2022-09-30T16:31:26.762Z,-74
2022-09-30T16:36:26.701Z,-74
2022-09-30T16:46:26.709Z,-74
2022-09-30T16:56:26.700Z,-74
2022-09-30T17:01:26.782Z,-74
2022-09-30T17:11:26.713Z,-74
2022-09-30T17:16:26.732Z,-74
2022-09-30T17:26:26.697Z,-74
2022-09-30T17:36:26.732Z,-74
2022-09-30T17:46:26.701Z,-74
2022-09-30T17:56:26.727Z,-74
2022-09-30T18:01:26.751Z,-75
2022-09-30T18:11:26.694Z,-74
2022-09-30T18:21:26.727Z,-74
2022-09-30T18:26:26.713Z,-74
2022-09-30T18:36:26.694Z,-74
2022-09-30T18:41:26.718Z,-71
2022-09-30T18:46:26.739Z,-70
2022-09-30T18:51:26.717Z,-70
2022-09-30T19:01:26.839Z,-76
2022-09-30T19:06:26.721Z,-75
2022-09-30T19:16:26.927Z,-77
2022-09-30T19:26:26.729Z,-77
2022-09-30T19:31:26.778Z,-77
2022-09-30T19:36:26.733Z,-77
2022-09-30T19:46:26.719Z,-76
2022-09-30T19:51:26.718Z,-76
2022-09-30T20:01:26.751Z,-77
2022-09-30T20:11:26.721Z,-76
2022-09-30T20:16:26.749Z,-76
2022-09-30T20:21:26.723Z,-76
2022-09-30T20:31:26.879Z,-76
2022-09-30T20:41:26.715Z,-75
2022-09-30T20:51:26.728Z,-75
2022-09-30T20:56:26.859Z,-74
2022-09-30T21:01:26.812Z,-75
2022-09-30T21:06:26.717Z,-75
2022-09-30T21:16:26.781Z,-75
2022-09-30T21:21:26.722Z,-75
2022-09-30T21:26:26.720Z,-75
2022-09-30T21:31:26.953Z,-75
2022-09-30T21:41:26.739Z,-75
2022-09-30T21:46:26.724Z,-74
2022-09-30T21:51:26.725Z,-74
2022-09-30T22:01:26.816Z,-74
2022-09-30T22:06:26.718Z,-74
2022-09-30T22:11:26.731Z,-75
2022-09-30T22:16:26.768Z,-74
2022-09-30T22:26:26.813Z,-74
2022-09-30T22:31:26.788Z,-74
2022-09-30T22:36:26.746Z,-74
2022-09-30T22:46:26.739Z,-75
2022-09-30T22:56:26.774Z,-74
2022-09-30T23:06:26.746Z,-75
2022-09-30T23:11:26.733Z,-75
2022-09-30T23:16:26.839Z,-75
2022-09-30T23:26:26.754Z,-75
2022-09-30T23:31:26.778Z,-74
2022-09-30T23:41:26.732Z,-76
2022-09-30T23:46:26.748Z,-75
2022-09-30T23:51:26.727Z,-76
